sensor_id;sensor_type;location;lat;lon;timestamp;pressure;altitude;pressure_sealevel;temperature;humidity
9764;BME280;4921;43.214;27.936;2023-04-20T00:00:36;100491.44;;;13.15;100.00
9764;BME280;4921;43.214;27.936;2023-04-20T00:03:03;100479.91;;;13.16;100.00
9764;BME280;4921;43.214;27.936;2023-04-20T00:05:30;100483.09;;;13.10;100.00
9764;BME280;4921;43.214;27.936;2023-04-20T00:07:57;100455.44;;;12.94;100.00
9764;BME280;4921;43.214;27.936;2023-04-20T00:10:24;100481.97;;;13.02;100.00
9764;BME280;4921;43.214;27.936;2023-04-20T00:12:51;100481.16;;;13.02;100.00
9764;BME280;4921;43.214;27.936;2023-04-20T00:15:18;100481.31;;;13.10;100.00
9764;BME280;4921;43.214;27.936;2023-04-20T00:17:47;100483.09;;;13.19;100.00
9764;BME280;4921;43.214;27.936;2023-04-20T00:20:14;100480.03;;;13.24;100.00
9764;BME280;4921;43.214;27.936;2023-04-20T00:22:40;100462.97;;;13.09;100.00
9764;BME280;4921;43.214;27.936;2023-04-20T00:25:08;100477.66;;;13.01;100.00
9764;BME280;4921;43.214;27.936;2023-04-20T00:27:35;100477.69;;;12.82;100.00
9764;BME280;4921;43.214;27.936;2023-04-20T00:30:03;100477.84;;;12.81;100.00
9764;BME280;4921;43.214;27.936;2023-04-20T00:32:30;100479.91;;;12.77;100.00
9764;BME280;4921;43.214;27.936;2023-04-20T00:34:58;100480.59;;;12.79;100.00
9764;BME280;4921;43.214;27.936;2023-04-20T00:37:25;100467.41;;;12.79;100.00
9764;BME280;4921;43.214;27.936;2023-04-20T00:39:54;100479.06;;;12.77;100.00
9764;BME280;4921;43.214;27.936;2023-04-20T00:42:21;100481.44;;;12.61;100.00
9764;BME280;4921;43.214;27.936;2023-04-20T00:44:48;100468.22;;;12.51;100.00
9764;BME280;4921;43.214;27.936;2023-04-20T00:47:16;100475.34;;;12.51;100.00
9764;BME280;4921;43.214;27.936;2023-04-20T00:49:43;100474.78;;;12.57;100.00
9764;BME280;4921;43.214;27.936;2023-04-20T00:52:11;100470.88;;;12.61;100.00
9764;BME280;4921;43.214;27.936;2023-04-20T00:54:38;100463.66;;;12.53;100.00
9764;BME280;4921;43.214;27.936;2023-04-20T00:57:06;100468.38;;;12.69;100.00
9764;BME280;4921;43.214;27.936;2023-04-20T00:59:33;100469.66;;;12.74;100.00
9764;BME280;4921;43.214;27.936;2023-04-20T01:02:00;100469.38;;;12.68;100.00
9764;BME280;4921;43.214;27.936;2023-04-20T01:04:27;100467.69;;;12.76;100.00
9764;BME280;4921;43.214;27.936;2023-04-20T01:06:54;100463.09;;;12.69;100.00
9764;BME280;4921;43.214;27.936;2023-04-20T01:09:23;100449.91;;;12.69;100.00
9764;BME280;4921;43.214;27.936;2023-04-20T01:11:50;100453.53;;;12.77;100.00
9764;BME280;4921;43.214;27.936;2023-04-20T01:14:17;100455.50;;;12.66;100.00
9764;BME280;4921;43.214;27.936;2023-04-20T01:16:44;100457.69;;;12.61;100.00
9764;BME280;4921;43.214;27.936;2023-04-20T01:19:11;100460.31;;;12.70;100.00
9764;BME280;4921;43.214;27.936;2023-04-20T01:21:39;100461.44;;;12.77;100.00
9764;BME280;4921;43.214;27.936;2023-04-20T01:24:08;100461.44;;;12.87;100.00
9764;BME280;4921;43.214;27.936;2023-04-20T01:26:35;100464.91;;;12.78;100.00
9764;BME280;4921;43.214;27.936;2023-04-20T01:29:01;100460.19;;;12.62;100.00
9764;BME280;4921;43.214;27.936;2023-04-20T01:31:29;100466.72;;;12.68;100.00
9764;BME280;4921;43.214;27.936;2023-04-20T01:33:56;100458.38;;;12.72;100.00
9764;BME280;4921;43.214;27.936;2023-04-20T01:36:23;100465.34;;;12.73;100.00
9764;BME280;4921;43.214;27.936;2023-04-20T01:38:50;100458.09;;;12.56;100.00
9764;BME280;4921;43.214;27.936;2023-04-20T01:41:19;100464.34;;;12.55;100.00
9764;BME280;4921;43.214;27.936;2023-04-20T01:43:46;100462.41;;;12.57;100.00
9764;BME280;4921;43.214;27.936;2023-04-20T01:46:13;100452.84;;;12.56;100.00
9764;BME280;4921;43.214;27.936;2023-04-20T01:48:40;100461.59;;;12.38;100.00
9764;BME280;4921;43.214;27.936;2023-04-20T01:51:07;100454.09;;;12.52;100.00
9764;BME280;4921;43.214;27.936;2023-04-20T01:53:34;100452.28;;;12.62;100.00
9764;BME280;4921;43.214;27.936;2023-04-20T01:56:01;100459.66;;;12.59;100.00
9764;BME280;4921;43.214;27.936;2023-04-20T01:58:29;100461.88;;;12.44;100.00
9764;BME280;4921;43.214;27.936;2023-04-20T02:00:56;100460.75;;;12.37;100.00
9764;BME280;4921;43.214;27.936;2023-04-20T02:03:23;100459.09;;;12.46;100.00
9764;BME280;4921;43.214;27.936;2023-04-20T02:05:50;100465.47;;;12.43;100.00
9764;BME280;4921;43.214;27.936;2023-04-20T02:08:17;100463.94;;;12.50;100.00
9764;BME280;4921;43.214;27.936;2023-04-20T02:10:45;100460.31;;;12.51;100.00
9764;BME280;4921;43.214;27.936;2023-04-20T02:13:11;100465.47;;;12.53;100.00
9764;BME280;4921;43.214;27.936;2023-04-20T02:15:41;100469.91;;;12.52;100.00
9764;BME280;4921;43.214;27.936;2023-04-20T02:18:07;100474.88;;;12.36;100.00
9764;BME280;4921;43.214;27.936;2023-04-20T02:20:35;100470.84;;;12.32;100.00
9764;BME280;4921;43.214;27.936;2023-04-20T02:23:02;100468.22;;;12.32;100.00
9764;BME280;4921;43.214;27.936;2023-04-20T02:25:29;100467.00;;;12.46;100.00
9764;BME280;4921;43.214;27.936;2023-04-20T02:27:56;100467.53;;;12.40;100.00
9764;BME280;4921;43.214;27.936;2023-04-20T02:30:23;100467.25;;;12.43;100.00
9764;BME280;4921;43.214;27.936;2023-04-20T02:32:51;100465.59;;;12.51;100.00
9764;BME280;4921;43.214;27.936;2023-04-20T02:35:18;100463.09;;;12.40;100.00
9764;BME280;4921;43.214;27.936;2023-04-20T02:37:45;100463.78;;;12.42;100.00
9764;BME280;4921;43.214;27.936;2023-04-20T02:40:12;100455.03;;;12.51;100.00
9764;BME280;4921;43.214;27.936;2023-04-20T02:42:39;100459.22;;;12.54;100.00
9764;BME280;4921;43.214;27.936;2023-04-20T02:45:07;100454.63;;;12.56;100.00
9764;BME280;4921;43.214;27.936;2023-04-20T02:47:34;100449.91;;;12.50;100.00
9764;BME280;4921;43.214;27.936;2023-04-20T02:50:03;100450.06;;;12.58;100.00
9764;BME280;4921;43.214;27.936;2023-04-20T02:52:31;100447.56;;;12.66;100.00
9764;BME280;4921;43.214;27.936;2023-04-20T02:54:57;100453.81;;;12.65;100.00
9764;BME280;4921;43.214;27.936;2023-04-20T02:57:25;100450.34;;;12.64;100.00
9764;BME280;4921;43.214;27.936;2023-04-20T02:59:52;100445.63;;;12.58;100.00
9764;BME280;4921;43.214;27.936;2023-04-20T03:02:19;100450.75;;;12.60;100.00
9764;BME280;4921;43.214;27.936;2023-04-20T03:04:45;100446.16;;;12.62;100.00
9764;BME280;4921;43.214;27.936;2023-04-20T03:07:14;100447.84;;;12.63;100.00
9764;BME280;4921;43.214;27.936;2023-04-20T03:09:42;100440.22;;;12.50;100.00
9764;BME280;4921;43.214;27.936;2023-04-20T03:12:09;100447.72;;;12.55;100.00
9764;BME280;4921;43.214;27.936;2023-04-20T03:14:36;100438.13;;;12.63;100.00
9764;BME280;4921;43.214;27.936;2023-04-20T03:17:02;100448.66;;;12.73;100.00
9764;BME280;4921;43.214;27.936;2023-04-20T03:19:29;100448.13;;;12.69;100.00
9764;BME280;4921;43.214;27.936;2023-04-20T03:21:57;100442.84;;;12.69;100.00
9764;BME280;4921;43.214;27.936;2023-04-20T03:24:25;100449.78;;;12.80;100.00
9764;BME280;4921;43.214;27.936;2023-04-20T03:26:52;100459.75;;;12.86;100.00
9764;BME280;4921;43.214;27.936;2023-04-20T03:29:19;100458.09;;;12.75;100.00
9764;BME280;4921;43.214;27.936;2023-04-20T03:31:46;100444.66;;;12.78;100.00
9764;BME280;4921;43.214;27.936;2023-04-20T03:34:13;100443.66;;;12.79;100.00
9764;BME280;4921;43.214;27.936;2023-04-20T03:36:40;100442.56;;;12.82;100.00
9764;BME280;4921;43.214;27.936;2023-04-20T03:39:07;100441.84;;;12.80;100.00
9764;BME280;4921;43.214;27.936;2023-04-20T03:41:35;100439.06;;;12.91;100.00
9764;BME280;4921;43.214;27.936;2023-04-20T03:44:02;100436.59;;;12.89;100.00
9764;BME280;4921;43.214;27.936;2023-04-20T03:46:29;100440.31;;;12.96;100.00
9764;BME280;4921;43.214;27.936;2023-04-20T03:48:56;100450.16;;;13.04;100.00
9764;BME280;4921;43.214;27.936;2023-04-20T03:51:23;100442.38;;;13.02;100.00
9764;BME280;4921;43.214;27.936;2023-04-20T03:53:50;100461.69;;;13.03;100.00
9764;BME280;4921;43.214;27.936;2023-04-20T03:56:17;100453.75;;;13.03;100.00
9764;BME280;4921;43.214;27.936;2023-04-20T03:58:46;100447.66;;;13.02;100.00
9764;BME280;4921;43.214;27.936;2023-04-20T04:01:13;100455.44;;;13.04;100.00
9764;BME280;4921;43.214;27.936;2023-04-20T04:03:40;100452.00;;;12.84;100.00
9764;BME280;4921;43.214;27.936;2023-04-20T04:06:08;100451.03;;;12.76;100.00
9764;BME280;4921;43.214;27.936;2023-04-20T04:08:35;100453.78;;;12.84;100.00
9764;BME280;4921;43.214;27.936;2023-04-20T04:11:02;100456.28;;;12.95;100.00
9764;BME280;4921;43.214;27.936;2023-04-20T04:13:29;100454.34;;;12.97;100.00
9764;BME280;4921;43.214;27.936;2023-04-20T04:15:57;100458.22;;;13.22;100.00
9764;BME280;4921;43.214;27.936;2023-04-20T04:18:24;100450.66;;;13.73;100.00
9764;BME280;4921;43.214;27.936;2023-04-20T04:20:54;100452.38;;;13.92;100.00
9764;BME280;4921;43.214;27.936;2023-04-20T04:23:20;100456.97;;;13.90;100.00
9764;BME280;4921;43.214;27.936;2023-04-20T04:25:47;100456.34;;;14.05;100.00
9764;BME280;4921;43.214;27.936;2023-04-20T04:28:14;100454.38;;;14.34;100.00
9764;BME280;4921;43.214;27.936;2023-04-20T04:30:41;100456.28;;;14.60;100.00
9764;BME280;4921;43.214;27.936;2023-04-20T04:33:09;100466.03;;;14.77;100.00
9764;BME280;4921;43.214;27.936;2023-04-20T04:35:37;100459.19;;;14.92;100.00
9764;BME280;4921;43.214;27.936;2023-04-20T04:38:05;100464.50;;;14.92;100.00
9764;BME280;4921;43.214;27.936;2023-04-20T04:40:33;100456.00;;;14.88;100.00
9764;BME280;4921;43.214;27.936;2023-04-20T04:43:00;100454.19;;;14.89;100.00
9764;BME280;4921;43.214;27.936;2023-04-20T04:45:28;100451.72;;;14.87;100.00
9764;BME280;4921;43.214;27.936;2023-04-20T04:47:55;100457.84;;;14.88;100.00
9764;BME280;4921;43.214;27.936;2023-04-20T04:50:24;100464.78;;;14.89;100.00
9764;BME280;4921;43.214;27.936;2023-04-20T04:52:51;100460.50;;;14.88;100.00
9764;BME280;4921;43.214;27.936;2023-04-20T04:55:18;100461.31;;;14.88;100.00
9764;BME280;4921;43.214;27.936;2023-04-20T04:57:45;100467.81;;;14.94;100.00
9764;BME280;4921;43.214;27.936;2023-04-20T05:00:13;100462.53;;;14.94;100.00
9764;BME280;4921;43.214;27.936;2023-04-20T05:02:40;100465.63;;;14.89;100.00
9764;BME280;4921;43.214;27.936;2023-04-20T05:05:07;100475.22;;;14.90;100.00
9764;BME280;4921;43.214;27.936;2023-04-20T05:07:36;100472.56;;;14.90;100.00
9764;BME280;4921;43.214;27.936;2023-04-20T05:10:05;100480.16;;;14.85;100.00
9764;BME280;4921;43.214;27.936;2023-04-20T05:12:32;100479.31;;;14.85;100.00
9764;BME280;4921;43.214;27.936;2023-04-20T05:14:59;100479.78;;;14.80;100.00
9764;BME280;4921;43.214;27.936;2023-04-20T05:17:26;100477.28;;;14.79;100.00
9764;BME280;4921;43.214;27.936;2023-04-20T05:19:53;100483.03;;;14.74;100.00
9764;BME280;4921;43.214;27.936;2023-04-20T05:22:20;100487.22;;;14.77;100.00
9764;BME280;4921;43.214;27.936;2023-04-20T05:24:49;100482.03;;;14.75;100.00
9764;BME280;4921;43.214;27.936;2023-04-20T05:27:16;100476.91;;;14.74;100.00
9764;BME280;4921;43.214;27.936;2023-04-20T05:29:42;100489.31;;;14.73;100.00
9764;BME280;4921;43.214;27.936;2023-04-20T05:32:09;100481.38;;;14.73;100.00
9764;BME280;4921;43.214;27.936;2023-04-20T05:34:36;100484.00;;;14.73;100.00
9764;BME280;4921;43.214;27.936;2023-04-20T05:37:03;100479.03;;;14.70;100.00
9764;BME280;4921;43.214;27.936;2023-04-20T05:39:31;100482.66;;;14.69;100.00
9764;BME280;4921;43.214;27.936;2023-04-20T05:41:59;100476.53;;;14.69;100.00
9764;BME280;4921;43.214;27.936;2023-04-20T05:44:26;100479.88;;;14.71;100.00
9764;BME280;4921;43.214;27.936;2023-04-20T05:46:53;100478.03;;;14.71;100.00
9764;BME280;4921;43.214;27.936;2023-04-20T05:49:20;100480.41;;;14.74;100.00
9764;BME280;4921;43.214;27.936;2023-04-20T05:51:47;100489.19;;;14.75;100.00
9764;BME280;4921;43.214;27.936;2023-04-20T05:54:14;100486.38;;;14.76;100.00
9764;BME280;4921;43.214;27.936;2023-04-20T05:56:41;100488.72;;;14.79;100.00
9764;BME280;4921;43.214;27.936;2023-04-20T05:59:09;100484.91;;;14.82;100.00
9764;BME280;4921;43.214;27.936;2023-04-20T06:01:36;100482.25;;;14.82;100.00
9764;BME280;4921;43.214;27.936;2023-04-20T06:04:03;100494.69;;;14.81;100.00
9764;BME280;4921;43.214;27.936;2023-04-20T06:06:30;100490.81;;;14.76;100.00
9764;BME280;4921;43.214;27.936;2023-04-20T06:08:57;100487.22;;;14.77;100.00
9764;BME280;4921;43.214;27.936;2023-04-20T06:11:24;100485.69;;;14.74;100.00
9764;BME280;4921;43.214;27.936;2023-04-20T06:13:51;100485.91;;;14.81;100.00
9764;BME280;4921;43.214;27.936;2023-04-20T06:16:19;100486.28;;;14.86;100.00
9764;BME280;4921;43.214;27.936;2023-04-20T06:18:46;100483.66;;;14.86;100.00
9764;BME280;4921;43.214;27.936;2023-04-20T06:21:13;100486.44;;;14.84;100.00
9764;BME280;4921;43.214;27.936;2023-04-20T06:23:42;100481.34;;;14.91;100.00
9764;BME280;4921;43.214;27.936;2023-04-20T06:26:09;100484.56;;;14.94;100.00
9764;BME280;4921;43.214;27.936;2023-04-20T06:28:36;100489.84;;;14.94;100.00
9764;BME280;4921;43.214;27.936;2023-04-20T06:31:03;100472.06;;;14.87;100.00
9764;BME280;4921;43.214;27.936;2023-04-20T06:33:32;100489.06;;;15.02;100.00
9764;BME280;4921;43.214;27.936;2023-04-20T06:35:59;100485.97;;;15.06;100.00
9764;BME280;4921;43.214;27.936;2023-04-20T06:38:26;100481.72;;;15.13;100.00
9764;BME280;4921;43.214;27.936;2023-04-20T06:40:53;100485.50;;;15.11;100.00
9764;BME280;4921;43.214;27.936;2023-04-20T06:43:21;100478.91;;;15.15;100.00
9764;BME280;4921;43.214;27.936;2023-04-20T06:45:48;100475.41;;;15.14;100.00
9764;BME280;4921;43.214;27.936;2023-04-20T06:48:15;100472.47;;;15.17;100.00
9764;BME280;4921;43.214;27.936;2023-04-20T06:50:46;100473.16;;;15.19;100.00
9764;BME280;4921;43.214;27.936;2023-04-20T06:53:13;100467.69;;;15.21;100.00
9764;BME280;4921;43.214;27.936;2023-04-20T06:55:40;100467.72;;;15.29;100.00
9764;BME280;4921;43.214;27.936;2023-04-20T06:58:07;100470.53;;;15.27;100.00
9764;BME280;4921;43.214;27.936;2023-04-20T07:00:34;100476.88;;;15.35;100.00
9764;BME280;4921;43.214;27.936;2023-04-20T07:03:01;100471.63;;;15.43;100.00
9764;BME280;4921;43.214;27.936;2023-04-20T07:05:29;100476.88;;;15.52;100.00
9764;BME280;4921;43.214;27.936;2023-04-20T07:07:57;100483.34;;;15.58;100.00
9764;BME280;4921;43.214;27.936;2023-04-20T07:10:24;100476.22;;;15.58;100.00
9764;BME280;4921;43.214;27.936;2023-04-20T07:12:51;100484.84;;;15.60;100.00
9764;BME280;4921;43.214;27.936;2023-04-20T07:15:18;100484.91;;;15.68;100.00
9764;BME280;4921;43.214;27.936;2023-04-20T07:17:45;100482.72;;;15.64;100.00
9764;BME280;4921;43.214;27.936;2023-04-20T07:20:12;100486.38;;;15.63;100.00
9764;BME280;4921;43.214;27.936;2023-04-20T07:22:39;100480.59;;;15.67;100.00
9764;BME280;4921;43.214;27.936;2023-04-20T07:25:08;100490.66;;;15.64;100.00
9764;BME280;4921;43.214;27.936;2023-04-20T07:27:36;100496.31;;;15.61;100.00
9764;BME280;4921;43.214;27.936;2023-04-20T07:30:04;100488.19;;;15.62;100.00
9764;BME280;4921;43.214;27.936;2023-04-20T07:32:32;100485.69;;;15.61;100.00
9764;BME280;4921;43.214;27.936;2023-04-20T07:34:59;100495.84;;;15.65;100.00
9764;BME280;4921;43.214;27.936;2023-04-20T07:37:26;100489.72;;;15.73;100.00
9764;BME280;4921;43.214;27.936;2023-04-20T07:39:53;100497.38;;;15.76;100.00
9764;BME280;4921;43.214;27.936;2023-04-20T07:42:21;100477.13;;;15.75;100.00
9764;BME280;4921;43.214;27.936;2023-04-20T07:44:48;100491.94;;;15.85;100.00
9764;BME280;4921;43.214;27.936;2023-04-20T07:47:15;100496.44;;;15.85;100.00
9764;BME280;4921;43.214;27.936;2023-04-20T07:49:42;100495.94;;;15.89;100.00
9764;BME280;4921;43.214;27.936;2023-04-20T07:52:09;100492.78;;;15.86;100.00
9764;BME280;4921;43.214;27.936;2023-04-20T07:54:37;100490.63;;;15.89;100.00
9764;BME280;4921;43.214;27.936;2023-04-20T07:57:04;100495.44;;;15.94;100.00
9764;BME280;4921;43.214;27.936;2023-04-20T07:59:34;100489.47;;;15.92;100.00
9764;BME280;4921;43.214;27.936;2023-04-20T08:02:01;100497.66;;;16.07;100.00
9764;BME280;4921;43.214;27.936;2023-04-20T08:04:28;100501.34;;;16.14;100.00
9764;BME280;4921;43.214;27.936;2023-04-20T08:06:56;100494.88;;;16.16;100.00
9764;BME280;4921;43.214;27.936;2023-04-20T08:09:23;100492.91;;;16.18;100.00
9764;BME280;4921;43.214;27.936;2023-04-20T08:11:51;100476.97;;;16.10;100.00
9764;BME280;4921;43.214;27.936;2023-04-20T08:14:22;100488.63;;;16.25;100.00
9764;BME280;4921;43.214;27.936;2023-04-20T08:16:53;100487.00;;;16.32;100.00
9764;BME280;4921;43.214;27.936;2023-04-20T08:19:24;100486.34;;;16.38;100.00
9764;BME280;4921;43.214;27.936;2023-04-20T08:21:51;100492.50;;;16.47;100.00
9764;BME280;4921;43.214;27.936;2023-04-20T08:24:18;100489.56;;;16.66;100.00
9764;BME280;4921;43.214;27.936;2023-04-20T08:26:50;100484.09;;;16.92;100.00
9764;BME280;4921;43.214;27.936;2023-04-20T08:29:17;100481.13;;;17.03;100.00
9764;BME280;4921;43.214;27.936;2023-04-20T08:31:43;100479.59;;;17.08;100.00
9764;BME280;4921;43.214;27.936;2023-04-20T08:34:12;100477.47;;;16.96;100.00
9764;BME280;4921;43.214;27.936;2023-04-20T08:36:39;100483.13;;;16.93;100.00
9764;BME280;4921;43.214;27.936;2023-04-20T08:39:07;100474.97;;;17.02;100.00
9764;BME280;4921;43.214;27.936;2023-04-20T08:41:35;100485.94;;;17.07;100.00
9764;BME280;4921;43.214;27.936;2023-04-20T08:44:02;100479.31;;;17.03;100.00
9764;BME280;4921;43.214;27.936;2023-04-20T08:46:30;100479.94;;;17.13;100.00
9764;BME280;4921;43.214;27.936;2023-04-20T08:48:59;100482.59;;;17.21;100.00
9764;BME280;4921;43.214;27.936;2023-04-20T08:51:28;100483.25;;;17.23;100.00
9764;BME280;4921;43.214;27.936;2023-04-20T08:54:02;100487.25;;;17.19;100.00
9764;BME280;4921;43.214;27.936;2023-04-20T08:56:36;100488.75;;;17.14;100.00
9764;BME280;4921;43.214;27.936;2023-04-20T08:59:04;100487.75;;;17.07;100.00
9764;BME280;4921;43.214;27.936;2023-04-20T09:01:35;100480.81;;;17.06;100.00
9764;BME280;4921;43.214;27.936;2023-04-20T09:04:14;100479.44;;;17.18;100.00
9764;BME280;4921;43.214;27.936;2023-04-20T09:06:44;100471.47;;;17.26;100.00
9764;BME280;4921;43.214;27.936;2023-04-20T09:09:13;100475.09;;;17.33;100.00
9764;BME280;4921;43.214;27.936;2023-04-20T09:11:41;100469.78;;;17.33;100.00
9764;BME280;4921;43.214;27.936;2023-04-20T09:14:11;100471.44;;;17.34;100.00
9764;BME280;4921;43.214;27.936;2023-04-20T09:16:48;100478.44;;;17.27;100.00
9764;BME280;4921;43.214;27.936;2023-04-20T09:19:20;100472.00;;;17.05;100.00
9764;BME280;4921;43.214;27.936;2023-04-20T09:21:51;100479.13;;;17.05;100.00
9764;BME280;4921;43.214;27.936;2023-04-20T09:24:20;100480.63;;;16.83;100.00
9764;BME280;4921;43.214;27.936;2023-04-20T09:26:53;100478.63;;;16.93;100.00
9764;BME280;4921;43.214;27.936;2023-04-20T09:29:24;100482.09;;;16.94;100.00
9764;BME280;4921;43.214;27.936;2023-04-20T09:31:53;100458.03;;;16.79;100.00
9764;BME280;4921;43.214;27.936;2023-04-20T09:34:22;100481.94;;;16.87;100.00
9764;BME280;4921;43.214;27.936;2023-04-20T09:36:52;100476.44;;;16.89;100.00
9764;BME280;4921;43.214;27.936;2023-04-20T09:39:21;100474.13;;;16.94;100.00
9764;BME280;4921;43.214;27.936;2023-04-20T09:41:49;100471.66;;;17.16;100.00
9764;BME280;4921;43.214;27.936;2023-04-20T09:44:17;100481.41;;;17.32;100.00
9764;BME280;4921;43.214;27.936;2023-04-20T09:46:45;100475.25;;;17.39;100.00
9764;BME280;4921;43.214;27.936;2023-04-20T09:49:15;100483.38;;;17.62;100.00
9764;BME280;4921;43.214;27.936;2023-04-20T09:51:42;100481.81;;;17.84;100.00
9764;BME280;4921;43.214;27.936;2023-04-20T09:54:12;100480.88;;;18.07;100.00
9764;BME280;4921;43.214;27.936;2023-04-20T09:56:40;100479.53;;;18.11;100.00
9764;BME280;4921;43.214;27.936;2023-04-20T09:59:08;100491.00;;;18.12;100.00
9764;BME280;4921;43.214;27.936;2023-04-20T10:01:36;100495.06;;;18.00;100.00
9764;BME280;4921;43.214;27.936;2023-04-20T10:04:15;100496.22;;;17.97;100.00
9764;BME280;4921;43.214;27.936;2023-04-20T10:06:52;100495.63;;;17.79;100.00
9764;BME280;4921;43.214;27.936;2023-04-20T10:09:22;100475.81;;;17.82;100.00
9764;BME280;4921;43.214;27.936;2023-04-20T10:11:51;100482.72;;;18.07;100.00
9764;BME280;4921;43.214;27.936;2023-04-20T10:14:20;100467.03;;;18.20;100.00
9764;BME280;4921;43.214;27.936;2023-04-20T10:17:04;100494.56;;;18.66;100.00
9764;BME280;4921;43.214;27.936;2023-04-20T10:19:37;100491.72;;;18.67;100.00
9764;BME280;4921;43.214;27.936;2023-04-20T10:22:07;100495.38;;;18.66;100.00
9764;BME280;4921;43.214;27.936;2023-04-20T10:24:37;100493.56;;;18.67;100.00
9764;BME280;4921;43.214;27.936;2023-04-20T10:27:15;100489.47;;;18.56;100.00
9764;BME280;4921;43.214;27.936;2023-04-20T10:32:48;100490.88;;;18.44;100.00
9764;BME280;4921;43.214;27.936;2023-04-20T10:35:20;100484.84;;;18.42;100.00
9764;BME280;4921;43.214;27.936;2023-04-20T10:37:51;100496.53;;;18.41;100.00
9764;BME280;4921;43.214;27.936;2023-04-20T10:40:29;100497.03;;;18.37;100.00
9764;BME280;4921;43.214;27.936;2023-04-20T10:42:57;100494.31;;;18.22;100.00
9764;BME280;4921;43.214;27.936;2023-04-20T10:45:42;100484.75;;;18.05;100.00
9764;BME280;4921;43.214;27.936;2023-04-20T10:48:12;100491.38;;;18.09;100.00
9764;BME280;4921;43.214;27.936;2023-04-20T10:50:43;100491.66;;;18.22;100.00
9764;BME280;4921;43.214;27.936;2023-04-20T10:53:21;100475.63;;;18.30;100.00
9764;BME280;4921;43.214;27.936;2023-04-20T10:55:59;100490.78;;;18.60;100.00
9764;BME280;4921;43.214;27.936;2023-04-20T10:58:27;100487.72;;;18.71;100.00
9764;BME280;4921;43.214;27.936;2023-04-20T11:00:58;100489.66;;;18.77;100.00
9764;BME280;4921;43.214;27.936;2023-04-20T11:03:27;100490.84;;;18.75;100.00
9764;BME280;4921;43.214;27.936;2023-04-20T11:05:54;100489.78;;;18.84;100.00
9764;BME280;4921;43.214;27.936;2023-04-20T11:08:38;100486.56;;;18.66;100.00
9764;BME280;4921;43.214;27.936;2023-04-20T11:11:19;100474.53;;;18.47;100.00
9764;BME280;4921;43.214;27.936;2023-04-20T11:13:49;100479.13;;;18.31;100.00
9764;BME280;4921;43.214;27.936;2023-04-20T11:16:22;100477.03;;;18.10;100.00
9764;BME280;4921;43.214;27.936;2023-04-20T11:18:50;100481.81;;;17.92;100.00
9764;BME280;4921;43.214;27.936;2023-04-20T11:21:18;100478.72;;;18.03;100.00
9764;BME280;4921;43.214;27.936;2023-04-20T11:23:45;100488.25;;;17.97;100.00
9764;BME280;4921;43.214;27.936;2023-04-20T11:26:13;100480.63;;;17.86;100.00
9764;BME280;4921;43.214;27.936;2023-04-20T11:28:51;100482.00;;;17.82;100.00
9764;BME280;4921;43.214;27.936;2023-04-20T11:31:18;100489.13;;;17.90;100.00
9764;BME280;4921;43.214;27.936;2023-04-20T11:33:45;100482.97;;;17.89;100.00
9764;BME280;4921;43.214;27.936;2023-04-20T11:36:19;100484.09;;;17.95;100.00
9764;BME280;4921;43.214;27.936;2023-04-20T11:38:46;100482.31;;;17.87;100.00
9764;BME280;4921;43.214;27.936;2023-04-20T11:41:13;100457.72;;;17.77;100.00
9764;BME280;4921;43.214;27.936;2023-04-20T11:43:41;100478.00;;;17.78;100.00
9764;BME280;4921;43.214;27.936;2023-04-20T11:46:14;100469.81;;;17.88;100.00
9764;BME280;4921;43.214;27.936;2023-04-20T11:48:42;100470.19;;;17.85;100.00
9764;BME280;4921;43.214;27.936;2023-04-20T11:51:09;100471.16;;;17.84;100.00
9764;BME280;4921;43.214;27.936;2023-04-20T11:53:40;100470.50;;;17.90;100.00
9764;BME280;4921;43.214;27.936;2023-04-20T11:56:09;100471.16;;;17.92;100.00
9764;BME280;4921;43.214;27.936;2023-04-20T11:58:37;100459.34;;;17.86;100.00
9764;BME280;4921;43.214;27.936;2023-04-20T12:01:09;100467.91;;;17.66;100.00
9764;BME280;4921;43.214;27.936;2023-04-20T12:03:43;100469.38;;;17.76;100.00
9764;BME280;4921;43.214;27.936;2023-04-20T12:06:10;100481.69;;;17.69;100.00
9764;BME280;4921;43.214;27.936;2023-04-20T12:08:39;100470.88;;;17.79;100.00
9764;BME280;4921;43.214;27.936;2023-04-20T12:11:08;100477.50;;;17.83;100.00
9764;BME280;4921;43.214;27.936;2023-04-20T12:13:35;100470.47;;;17.98;100.00
9764;BME280;4921;43.214;27.936;2023-04-20T12:16:03;100475.09;;;18.04;100.00
9764;BME280;4921;43.214;27.936;2023-04-20T12:18:30;100477.28;;;18.00;100.00
9764;BME280;4921;43.214;27.936;2023-04-20T12:21:04;100477.78;;;17.96;100.00
9764;BME280;4921;43.214;27.936;2023-04-20T12:23:32;100467.09;;;18.04;100.00
9764;BME280;4921;43.214;27.936;2023-04-20T12:26:21;100475.97;;;17.96;100.00
9764;BME280;4921;43.214;27.936;2023-04-20T12:28:49;100476.47;;;17.84;100.00
9764;BME280;4921;43.214;27.936;2023-04-20T12:31:19;100485.00;;;17.71;100.00
9764;BME280;4921;43.214;27.936;2023-04-20T12:33:51;100489.69;;;17.69;100.00
9764;BME280;4921;43.214;27.936;2023-04-20T12:36:21;100476.06;;;17.64;100.00
9764;BME280;4921;43.214;27.936;2023-04-20T12:38:50;100480.72;;;17.62;100.00
9764;BME280;4921;43.214;27.936;2023-04-20T12:41:18;100475.25;;;17.64;100.00
9764;BME280;4921;43.214;27.936;2023-04-20T12:43:48;100465.91;;;17.68;100.00
9764;BME280;4921;43.214;27.936;2023-04-20T12:46:21;100475.72;;;17.67;100.00
9764;BME280;4921;43.214;27.936;2023-04-20T12:48:48;100468.22;;;17.71;100.00
9764;BME280;4921;43.214;27.936;2023-04-20T12:51:18;100473.22;;;17.74;100.00
9764;BME280;4921;43.214;27.936;2023-04-20T12:53:46;100471.53;;;17.81;100.00
9764;BME280;4921;43.214;27.936;2023-04-20T12:56:21;100467.16;;;17.88;100.00
9764;BME280;4921;43.214;27.936;2023-04-20T12:58:52;100453.25;;;17.78;100.00